createdAt,value
2023-05-04T00:01:03.961Z,59.70
2023-05-04T00:03:31.802Z,59.70
2023-05-04T00:05:59.650Z,59.80
2023-05-04T00:08:28.701Z,59.80
2023-05-04T00:10:57.504Z,59.80
2023-05-04T00:13:25.308Z,59.80
2023-05-04T00:15:53.070Z,59.80
2023-05-04T00:18:21.376Z,59.90
2023-05-04T00:20:49.074Z,59.90
2023-05-04T00:23:16.751Z,59.90
2023-05-04T00:25:45.801Z,59.90
2023-05-04T00:28:13.850Z,60.00
2023-05-04T00:30:41.909Z,60.00
2023-05-04T00:33:09.757Z,60.00
2023-05-04T00:35:37.602Z,60.00
2023-05-04T00:38:05.483Z,60.00
2023-05-04T00:40:35.000Z,60.10
2023-05-04T00:43:04.066Z,60.10
2023-05-04T00:45:31.925Z,60.10
2023-05-04T00:47:59.876Z,60.10
2023-05-04T00:50:29.593Z,60.10
2023-05-04T00:53:00.572Z,60.20
2023-05-04T00:55:28.565Z,60.10
2023-05-04T00:57:56.494Z,60.20
2023-05-04T01:00:25.702Z,60.20
2023-05-04T01:02:53.527Z,60.20
2023-05-04T01:05:23.672Z,60.20
2023-05-04T01:07:58.883Z,60.20
2023-05-04T01:10:35.231Z,60.30
2023-05-04T01:13:08.396Z,60.20
2023-05-04T01:15:38.020Z,60.30
2023-05-04T01:18:05.869Z,60.20
2023-05-04T01:20:34.684Z,60.20
2023-05-04T01:23:04.878Z,60.30
2023-05-04T01:25:36.776Z,60.30
2023-05-04T01:28:11.251Z,60.30
2023-05-04T01:30:41.679Z,60.30
2023-05-04T01:33:10.627Z,60.30
2023-05-04T01:35:38.616Z,60.30
2023-05-04T01:38:07.735Z,60.30
2023-05-04T01:40:35.494Z,60.40
2023-05-04T01:43:03.193Z,60.40
2023-05-04T01:45:31.140Z,60.40
2023-05-04T01:47:59.007Z,60.40
2023-05-04T01:50:26.922Z,60.40
2023-05-04T01:52:54.794Z,60.50
2023-05-04T01:55:23.834Z,60.50
2023-05-04T01:57:51.522Z,60.50
2023-05-04T02:00:20.082Z,60.50
2023-05-04T02:02:48.134Z,60.50
2023-05-04T02:05:19.524Z,60.50
2023-05-04T02:07:47.344Z,60.50
2023-05-04T02:10:15.262Z,60.50
2023-05-04T02:12:44.318Z,60.50
2023-05-04T02:15:12.593Z,60.60
2023-05-04T02:17:40.305Z,60.60
2023-05-04T02:20:09.760Z,60.60
2023-05-04T02:22:37.559Z,60.60
2023-05-04T02:25:06.171Z,60.70
2023-05-04T02:27:33.916Z,60.70
2023-05-04T02:30:04.606Z,60.70
2023-05-04T02:32:32.613Z,60.70
2023-05-04T02:35:00.546Z,60.70
2023-05-04T02:37:29.808Z,60.80
2023-05-04T02:39:57.500Z,60.80
2023-05-04T02:42:25.865Z,60.70
2023-05-04T02:44:53.532Z,60.80
2023-05-04T02:47:22.593Z,60.80
2023-05-04T02:49:50.815Z,60.80
2023-05-04T02:52:18.656Z,60.80
2023-05-04T02:54:47.324Z,60.80
2023-05-04T02:57:15.050Z,60.90
2023-05-04T02:59:42.780Z,60.90
2023-05-04T03:02:11.313Z,60.90
2023-05-04T03:04:40.451Z,60.90
2023-05-04T03:07:09.981Z,60.90
2023-05-04T03:09:37.691Z,61.00
2023-05-04T03:12:05.926Z,61.00
2023-05-04T03:14:33.635Z,61.00
2023-05-04T03:17:01.484Z,61.00
2023-05-04T03:19:29.258Z,61.00
2023-05-04T03:21:58.851Z,61.00
2023-05-04T03:24:26.682Z,61.00
2023-05-04T03:26:54.645Z,61.00
2023-05-04T03:29:23.250Z,61.00
2023-05-04T03:31:51.397Z,61.00
2023-05-04T03:34:21.345Z,61.00
2023-05-04T03:36:51.217Z,61.00
2023-05-04T03:39:20.397Z,61.10
2023-05-04T03:41:49.436Z,61.10
2023-05-04T03:44:17.127Z,61.10
2023-05-04T03:46:45.421Z,61.10
2023-05-04T03:49:13.359Z,61.00
2023-05-04T03:51:41.203Z,61.10
2023-05-04T03:54:09.299Z,61.10
2023-05-04T03:56:38.345Z,61.10
2023-05-04T03:59:06.172Z,61.10
2023-05-04T04:01:35.107Z,61.10
2023-05-04T04:04:04.062Z,61.30
2023-05-04T04:06:32.011Z,61.10
2023-05-04T04:08:59.721Z,61.20
2023-05-04T04:11:27.576Z,61.20
2023-05-04T04:13:56.834Z,61.20
2023-05-04T04:16:24.920Z,61.30
2023-05-04T04:18:52.638Z,61.30
2023-05-04T04:21:20.545Z,61.30
2023-05-04T04:23:48.603Z,61.40
2023-05-04T04:26:16.515Z,61.40
2023-05-04T04:28:50.250Z,61.40
2023-05-04T04:31:20.161Z,61.40
2023-05-04T04:33:48.215Z,61.50
2023-05-04T04:36:16.622Z,61.50
2023-05-04T04:38:44.613Z,61.50
2023-05-04T04:41:12.404Z,61.50
2023-05-04T04:43:40.619Z,61.50
2023-05-04T04:46:08.315Z,61.50
2023-05-04T04:48:37.671Z,61.50
2023-05-04T04:51:10.296Z,61.50
2023-05-04T04:53:37.984Z,61.40
2023-05-04T04:56:07.228Z,61.40
2023-05-04T04:58:35.360Z,61.40
2023-05-04T05:01:04.125Z,61.40
2023-05-04T05:03:31.910Z,61.40
2023-05-04T05:06:02.540Z,61.40
2023-05-04T05:08:30.251Z,61.40
2023-05-04T05:10:57.950Z,61.40
2023-05-04T05:13:25.724Z,61.30
2023-05-04T05:15:53.452Z,61.40
2023-05-04T05:18:21.404Z,61.40
2023-05-04T05:20:49.402Z,61.50
2023-05-04T05:23:18.421Z,61.60
2023-05-04T05:25:46.211Z,61.60
2023-05-04T05:28:14.642Z,61.60
2023-05-04T05:30:42.835Z,61.60
2023-05-04T05:33:11.058Z,61.60
2023-05-04T05:35:38.832Z,61.70
2023-05-04T05:38:06.526Z,61.60
2023-05-04T05:40:35.588Z,61.60
2023-05-04T05:43:04.110Z,61.80
2023-05-04T05:45:31.868Z,61.70
2023-05-04T05:47:59.664Z,61.70
2023-05-04T05:50:27.602Z,61.80
2023-05-04T05:52:55.406Z,61.70
2023-05-04T05:55:23.166Z,61.70
2023-05-04T05:57:52.186Z,61.60
2023-05-04T06:00:20.457Z,61.60
2023-05-04T06:02:48.340Z,61.60
2023-05-04T06:05:16.290Z,61.60
2023-05-04T06:07:44.007Z,61.60
2023-05-04T06:10:11.997Z,61.60
2023-05-04T06:12:39.774Z,61.40
2023-05-04T06:15:10.258Z,61.10
2023-05-04T06:17:38.018Z,60.80
2023-05-04T06:20:06.929Z,60.50
2023-05-04T06:22:34.759Z,60.30
2023-05-04T06:25:05.274Z,60.20
2023-05-04T06:27:34.892Z,60.10
2023-05-04T06:30:02.696Z,60.00
2023-05-04T06:32:32.214Z,60.00
2023-05-04T06:35:00.210Z,59.90
2023-05-04T06:37:27.952Z,59.90
2023-05-04T06:39:55.714Z,59.90
2023-05-04T06:42:23.438Z,60.00
2023-05-04T06:44:52.639Z,60.00
2023-05-04T06:47:20.340Z,60.00
2023-05-04T06:49:49.426Z,60.00
2023-05-04T06:52:17.141Z,60.00
2023-05-04T06:54:44.801Z,60.00
2023-05-04T06:57:12.500Z,60.00
2023-05-04T06:59:40.200Z,60.00
2023-05-04T07:02:08.249Z,60.00
2023-05-04T07:04:35.934Z,60.00
2023-05-04T07:07:05.009Z,60.00
2023-05-04T07:09:33.019Z,60.10
2023-05-04T07:12:00.710Z,60.10
2023-05-04T07:14:28.377Z,60.10
2023-05-04T07:16:56.110Z,60.10
2023-05-04T07:19:23.998Z,60.10
2023-05-04T07:21:51.681Z,60.10
2023-05-04T07:24:20.701Z,60.10
2023-05-04T07:26:48.460Z,60.10
2023-05-04T07:29:16.182Z,60.20
2023-05-04T07:31:43.912Z,60.20
2023-05-04T07:34:11.785Z,60.20
2023-05-04T07:36:41.009Z,60.20
2023-05-04T07:39:10.370Z,60.10
2023-05-04T07:41:39.369Z,60.10
2023-05-04T07:44:08.665Z,60.10
2023-05-04T07:46:36.475Z,60.10
2023-05-04T07:49:04.447Z,60.10
2023-05-04T07:51:32.159Z,60.00
2023-05-04T07:53:59.920Z,60.00
2023-05-04T07:56:27.628Z,59.90
2023-05-04T07:58:56.640Z,59.90
2023-05-04T08:01:24.579Z,59.80
2023-05-04T08:03:52.528Z,59.80
2023-05-04T08:06:20.321Z,59.70
2023-05-04T08:08:51.423Z,59.70
2023-05-04T08:11:21.255Z,59.70
2023-05-04T08:13:50.465Z,59.60
2023-05-04T08:16:19.582Z,59.60
2023-05-04T08:18:47.299Z,59.60
2023-05-04T08:21:15.086Z,59.60
2023-05-04T08:23:42.857Z,59.60
2023-05-04T08:26:10.608Z,59.50
2023-05-04T08:28:40.018Z,59.60
2023-05-04T08:31:08.622Z,59.60
2023-05-04T08:33:37.623Z,59.60
2023-05-04T08:36:06.210Z,59.60
2023-05-04T08:38:34.130Z,59.60
2023-05-04T08:41:03.734Z,59.60
2023-05-04T08:43:32.016Z,59.60
2023-05-04T08:45:59.872Z,59.60
2023-05-04T08:48:27.720Z,59.60
2023-05-04T08:50:58.540Z,59.60
2023-05-04T08:53:27.626Z,59.60
2023-05-04T08:55:56.875Z,59.60
2023-05-04T08:58:25.931Z,59.60
2023-05-04T09:00:54.016Z,59.60
2023-05-04T09:03:22.277Z,59.60
2023-05-04T09:05:52.438Z,59.60
2023-05-04T09:08:21.820Z,59.60
2023-05-04T09:10:49.582Z,59.50
2023-05-04T09:13:17.831Z,59.50
2023-05-04T09:15:55.169Z,59.40
2023-05-04T09:18:23.970Z,59.30
2023-05-04T09:20:51.685Z,59.20
2023-05-04T09:23:22.297Z,59.10
2023-05-04T09:25:51.762Z,59.10
2023-05-04T09:28:22.751Z,59.00
2023-05-04T09:30:50.475Z,59.00
2023-05-04T09:33:25.966Z,59.00
2023-05-04T09:35:53.675Z,58.90
2023-05-04T09:38:29.460Z,58.90
2023-05-04T09:40:57.385Z,58.90
2023-05-04T09:43:25.282Z,58.90
2023-05-04T09:45:53.212Z,58.90
2023-05-04T09:48:25.534Z,58.80
2023-05-04T09:50:54.762Z,58.80
2023-05-04T09:53:24.906Z,58.70
2023-05-04T09:56:05.744Z,58.70
2023-05-04T09:58:35.703Z,58.70
2023-05-04T10:01:03.843Z,58.70
2023-05-04T10:03:32.411Z,58.70
2023-05-04T10:06:01.051Z,58.80
2023-05-04T10:08:29.072Z,58.80
2023-05-04T10:10:58.323Z,58.80
2023-05-04T10:13:26.743Z,58.80
2023-05-04T10:16:06.634Z,58.70
2023-05-04T10:18:49.128Z,58.70
2023-05-04T10:21:29.475Z,58.70
2023-05-04T10:24:24.515Z,58.70
2023-05-04T10:27:03.391Z,58.70
2023-05-04T10:29:33.176Z,58.70
2023-05-04T10:32:01.497Z,58.70
2023-05-04T10:34:31.478Z,58.70
2023-05-04T10:37:00.439Z,59.30
2023-05-04T10:39:35.229Z,58.70
2023-05-04T10:42:06.169Z,58.70
2023-05-04T10:44:37.260Z,58.80
2023-05-04T10:47:07.091Z,58.90
2023-05-04T10:49:36.528Z,59.50
2023-05-04T10:52:12.524Z,58.90
2023-05-04T10:54:41.599Z,59.00
2023-05-04T10:57:12.528Z,59.00
2023-05-04T10:59:41.196Z,59.10
2023-05-04T11:02:09.731Z,59.10
2023-05-04T11:04:38.399Z,59.20
2023-05-04T11:07:08.433Z,59.20
2023-05-04T11:09:38.243Z,59.90
2023-05-04T11:12:07.117Z,59.30
2023-05-04T11:14:37.747Z,59.30
2023-05-04T11:17:20.210Z,59.40
2023-05-04T11:19:55.928Z,59.40
2023-05-04T11:22:23.860Z,59.50
2023-05-04T11:24:51.790Z,59.50
2023-05-04T11:27:23.995Z,59.60
2023-05-04T11:29:57.322Z,59.60
2023-05-04T11:32:35.647Z,59.80
2023-05-04T11:35:04.210Z,59.80
2023-05-04T11:37:38.213Z,59.80
2023-05-04T11:40:10.693Z,59.90
2023-05-04T11:42:39.785Z,60.00
2023-05-04T11:45:13.393Z,60.00
2023-05-04T11:47:41.691Z,60.00
2023-05-04T11:50:11.650Z,60.00
2023-05-04T11:52:40.763Z,60.90
2023-05-04T11:55:10.171Z,60.10
2023-05-04T11:57:38.469Z,60.10
2023-05-04T12:00:07.859Z,60.20
2023-05-04T12:02:37.314Z,60.20
2023-05-04T12:05:13.197Z,60.30
2023-05-04T12:07:41.282Z,60.30
2023-05-04T12:10:09.705Z,60.40
2023-05-04T12:12:37.517Z,60.40
2023-05-04T12:15:05.996Z,60.40
2023-05-04T12:17:45.292Z,60.40
2023-05-04T12:20:24.012Z,60.50
2023-05-04T12:22:51.923Z,60.50
2023-05-04T12:25:19.878Z,60.50
2023-05-04T12:27:47.647Z,60.60
2023-05-04T12:30:15.699Z,60.60
2023-05-04T12:32:45.783Z,60.60
2023-05-04T12:35:13.603Z,60.70
2023-05-04T12:37:42.063Z,60.70
2023-05-04T12:40:27.346Z,60.70
2023-05-04T12:42:56.554Z,60.90
2023-05-04T12:45:24.293Z,60.90
2023-05-04T12:47:53.482Z,60.90
2023-05-04T12:50:21.352Z,61.00
2023-05-04T12:52:49.214Z,61.00
2023-05-04T12:55:17.402Z,61.00
2023-05-04T12:57:45.600Z,61.00
2023-05-04T13:00:15.218Z,61.30
2023-05-04T13:02:42.986Z,61.00
2023-05-04T13:05:12.953Z,61.10
2023-05-04T13:07:40.666Z,61.10
2023-05-04T13:10:09.149Z,61.20
2023-05-04T13:12:37.814Z,61.30
2023-05-04T13:15:07.416Z,61.20
2023-05-04T13:17:35.562Z,61.30
2023-05-04T13:20:06.079Z,61.30
2023-05-04T13:22:35.650Z,61.30
2023-05-04T13:25:03.484Z,61.30
2023-05-04T13:27:32.608Z,61.40
2023-05-04T13:30:02.916Z,61.40
2023-05-04T13:32:31.991Z,61.40
2023-05-04T13:34:59.767Z,61.40
2023-05-04T13:37:27.769Z,61.40
2023-05-04T13:39:57.206Z,61.50
2023-05-04T13:42:25.030Z,61.40
2023-05-04T13:44:52.890Z,61.50
2023-05-04T13:47:21.059Z,61.50
2023-05-04T13:49:49.114Z,61.50
2023-05-04T13:52:17.009Z,61.50
2023-05-04T13:54:44.764Z,61.60
2023-05-04T13:57:13.856Z,61.40
2023-05-04T13:59:48.782Z,61.50
2023-05-04T14:02:26.622Z,61.40
2023-05-04T14:04:54.608Z,61.20
2023-05-04T14:07:22.333Z,61.00
2023-05-04T14:09:50.434Z,60.90
2023-05-04T14:12:20.443Z,60.80
2023-05-04T14:14:48.474Z,60.60
2023-05-04T14:17:16.191Z,60.50
2023-05-04T14:19:44.781Z,60.40
2023-05-04T14:22:12.584Z,60.20
2023-05-04T14:24:40.427Z,60.20
2023-05-04T14:27:08.174Z,59.90
2023-05-04T14:29:37.413Z,60.00
2023-05-04T14:32:07.017Z,59.70
2023-05-04T14:34:34.859Z,59.60
2023-05-04T14:37:02.605Z,59.40
2023-05-04T14:39:30.353Z,59.40
2023-05-04T14:41:58.095Z,59.30
2023-05-04T14:44:27.815Z,59.30
2023-05-04T14:46:57.006Z,59.30
2023-05-04T14:49:36.446Z,59.30
2023-05-04T14:52:05.559Z,59.30
2023-05-04T14:54:33.304Z,59.30
2023-05-04T14:57:01.031Z,59.40
2023-05-04T14:59:28.758Z,59.40
2023-05-04T15:01:57.963Z,59.50
2023-05-04T15:04:25.680Z,59.50
2023-05-04T15:06:53.398Z,59.60
2023-05-04T15:09:21.113Z,59.60
2023-05-04T15:11:48.984Z,59.70
2023-05-04T15:14:16.742Z,59.80
2023-05-04T15:16:44.481Z,59.80
2023-05-04T15:19:13.560Z,59.80
2023-05-04T15:21:41.576Z,60.00
2023-05-04T15:24:09.473Z,59.90
2023-05-04T15:26:37.216Z,60.00
2023-05-04T15:29:06.465Z,60.00
2023-05-04T15:31:34.191Z,60.00
2023-05-04T15:34:02.583Z,60.10
2023-05-04T15:36:31.743Z,60.10
2023-05-04T15:38:59.549Z,60.10
2023-05-04T15:41:27.700Z,60.10
2023-05-04T15:43:55.437Z,60.20
2023-05-04T15:46:23.241Z,60.20
2023-05-04T15:48:51.006Z,60.30
2023-05-04T15:51:18.806Z,60.30
2023-05-04T15:53:48.081Z,60.20
2023-05-04T15:56:16.250Z,60.20
2023-05-04T15:58:45.098Z,60.00
2023-05-04T16:01:14.341Z,59.90
2023-05-04T16:03:42.889Z,59.80
2023-05-04T16:06:11.647Z,59.70
2023-05-04T16:08:39.422Z,59.60
2023-05-04T16:11:08.627Z,59.80
2023-05-04T16:13:36.572Z,59.80
2023-05-04T16:16:05.142Z,59.90
2023-05-04T16:18:32.897Z,60.20
2023-05-04T16:21:00.643Z,60.60
2023-05-04T16:23:28.877Z,60.80
2023-05-04T16:25:56.638Z,60.90
2023-05-04T16:28:25.731Z,60.90
2023-05-04T16:30:53.519Z,60.70
2023-05-04T16:33:21.316Z,59.30
2023-05-04T16:35:49.093Z,57.70
2023-05-04T16:38:19.296Z,56.40
2023-05-04T16:40:47.280Z,55.70
2023-05-04T16:43:15.011Z,55.20
2023-05-04T16:45:44.077Z,54.90
2023-05-04T16:48:11.829Z,55.20
2023-05-04T16:50:39.589Z,54.50
2023-05-04T16:53:07.290Z,54.60
2023-05-04T16:55:36.602Z,54.50
2023-05-04T16:58:04.321Z,54.40
2023-05-04T17:00:32.398Z,54.50
2023-05-04T17:03:01.560Z,54.60
2023-05-04T17:05:29.373Z,54.60
2023-05-04T17:07:57.092Z,54.30
2023-05-04T17:10:25.603Z,54.30
2023-05-04T17:12:54.126Z,54.30
2023-05-04T17:15:21.958Z,54.40
2023-05-04T17:17:49.702Z,54.70
2023-05-04T17:20:18.864Z,54.40
2023-05-04T17:22:46.772Z,54.30
2023-05-04T17:25:14.905Z,54.20
2023-05-04T17:27:43.696Z,54.10
2023-05-04T17:30:12.686Z,53.90
2023-05-04T17:32:40.506Z,53.80
2023-05-04T17:35:23.422Z,54.00
2023-05-04T17:37:57.019Z,54.10
2023-05-04T17:40:25.748Z,54.30
2023-05-04T17:42:53.704Z,54.30
2023-05-04T17:45:21.915Z,54.40
2023-05-04T17:47:51.832Z,54.20
2023-05-04T17:50:20.116Z,54.00
2023-05-04T17:52:53.797Z,54.10
2023-05-04T17:55:23.394Z,54.20
2023-05-04T17:57:52.804Z,54.30
2023-05-04T18:00:21.647Z,54.30
2023-05-04T18:02:49.822Z,54.30
2023-05-04T18:05:17.940Z,54.30
2023-05-04T18:07:46.127Z,54.30
2023-05-04T18:10:15.322Z,54.50
2023-05-04T18:12:43.263Z,54.80
2023-05-04T18:15:11.895Z,54.80
2023-05-04T18:17:39.895Z,55.00
2023-05-04T18:20:10.212Z,55.20
2023-05-04T18:22:38.466Z,55.20
2023-05-04T18:25:07.332Z,55.40
2023-05-04T18:27:36.869Z,55.40
2023-05-04T18:30:06.477Z,55.60
2023-05-04T18:32:34.559Z,55.70
2023-05-04T18:35:02.821Z,55.70
2023-05-04T18:37:31.630Z,55.80
2023-05-04T18:40:00.047Z,56.00
2023-05-04T18:42:27.980Z,56.10
2023-05-04T18:44:57.150Z,56.20
2023-05-04T18:47:25.426Z,56.30
2023-05-04T18:49:56.341Z,56.50
2023-05-04T18:52:24.240Z,56.50
2023-05-04T18:54:52.075Z,56.60
2023-05-04T18:57:19.957Z,56.60
2023-05-04T18:59:47.812Z,56.70
2023-05-04T19:02:17.331Z,56.80
2023-05-04T19:04:46.765Z,56.80
2023-05-04T19:07:15.215Z,56.80
2023-05-04T19:09:43.013Z,56.90
2023-05-04T19:12:10.838Z,56.90
2023-05-04T19:14:38.579Z,57.00
2023-05-04T19:17:06.674Z,57.00
2023-05-04T19:19:37.897Z,57.10
2023-05-04T19:22:06.691Z,57.10
2023-05-04T19:24:36.201Z,57.10
2023-05-04T19:27:04.094Z,57.20
2023-05-04T19:29:31.921Z,57.20
2023-05-04T19:32:03.399Z,57.20
2023-05-04T19:34:37.927Z,57.20
2023-05-04T19:37:05.824Z,57.20
2023-05-04T19:39:33.572Z,57.30
2023-05-04T19:42:01.965Z,57.40
2023-05-04T19:44:29.757Z,57.40
2023-05-04T19:46:57.568Z,57.40
2023-05-04T19:49:25.829Z,57.60
2023-05-04T19:51:54.923Z,57.60
2023-05-04T19:54:22.685Z,57.70
2023-05-04T19:56:50.479Z,57.70
2023-05-04T19:59:18.264Z,57.70
2023-05-04T20:01:46.161Z,57.90
2023-05-04T20:04:13.971Z,58.00
2023-05-04T20:06:41.916Z,58.00
2023-05-04T20:09:11.446Z,58.00
2023-05-04T20:11:39.325Z,58.20
2023-05-04T20:14:07.232Z,58.30
2023-05-04T20:16:36.101Z,58.30
2023-05-04T20:19:04.221Z,58.40
2023-05-04T20:21:32.166Z,58.40
2023-05-04T20:23:59.943Z,58.50
2023-05-04T20:26:29.062Z,58.60
2023-05-04T20:28:56.865Z,58.50
2023-05-04T20:31:24.667Z,58.50
2023-05-04T20:33:52.513Z,58.60
2023-05-04T20:36:20.305Z,58.60
2023-05-04T20:38:48.089Z,58.70
2023-05-04T20:41:15.932Z,58.70
2023-05-04T20:43:45.033Z,58.70
2023-05-04T20:46:12.815Z,58.90
2023-05-04T20:48:40.741Z,58.90
2023-05-04T20:51:14.815Z,58.90
2023-05-04T20:53:43.348Z,58.90
2023-05-04T20:56:11.394Z,59.00
2023-05-04T20:58:39.182Z,59.10
2023-05-04T21:01:08.386Z,59.10
2023-05-04T21:03:36.594Z,59.10
2023-05-04T21:06:04.978Z,59.10
2023-05-04T21:08:32.744Z,59.20
2023-05-04T21:11:01.051Z,59.20
2023-05-04T21:13:28.883Z,59.20
2023-05-04T21:15:56.720Z,59.30
2023-05-04T21:18:26.053Z,59.20
2023-05-04T21:20:54.058Z,59.30
2023-05-04T21:23:21.822Z,59.30
2023-05-04T21:25:49.543Z,59.30
2023-05-04T21:28:17.353Z,59.40
2023-05-04T21:30:45.095Z,59.40
2023-05-04T21:33:12.884Z,59.50
2023-05-04T21:35:41.986Z,59.50
2023-05-04T21:38:09.772Z,59.50
2023-05-04T21:40:37.509Z,59.60
2023-05-04T21:43:05.493Z,59.60
2023-05-04T21:45:33.535Z,59.70
2023-05-04T21:48:02.344Z,59.70
2023-05-04T21:50:30.892Z,59.70
2023-05-04T21:53:00.068Z,59.70
2023-05-04T21:55:30.272Z,59.80
2023-05-04T21:57:58.254Z,59.80
2023-05-04T22:00:26.432Z,59.80
2023-05-04T22:02:55.322Z,59.80
2023-05-04T22:05:23.340Z,59.90
2023-05-04T22:07:51.288Z,59.90
2023-05-04T22:10:20.548Z,60.30
2023-05-04T22:12:48.709Z,60.00
2023-05-04T22:15:16.648Z,60.00
2023-05-04T22:17:44.438Z,60.00
2023-05-04T22:20:13.540Z,60.90
2023-05-04T22:22:41.296Z,60.00
2023-05-04T22:25:09.722Z,60.10
2023-05-04T22:27:38.834Z,60.10
2023-05-04T22:30:08.515Z,60.20
2023-05-04T22:32:36.774Z,60.20
2023-05-04T22:35:05.174Z,60.20
2023-05-04T22:37:32.919Z,60.30
2023-05-04T22:40:00.826Z,60.30
2023-05-04T22:42:28.935Z,60.30
2023-05-04T22:44:58.150Z,60.40
2023-05-04T22:47:26.012Z,60.40
2023-05-04T22:49:55.091Z,60.40
2023-05-04T22:52:23.233Z,60.50
2023-05-04T22:54:51.142Z,60.40
2023-05-04T22:57:19.448Z,60.50
2023-05-04T22:59:47.268Z,60.50
2023-05-04T23:02:16.736Z,60.50
2023-05-04T23:04:44.754Z,60.50
2023-05-04T23:07:12.801Z,60.50
2023-05-04T23:09:43.089Z,60.50
2023-05-04T23:12:10.971Z,60.50
2023-05-04T23:14:38.724Z,60.70
2023-05-04T23:17:06.518Z,60.60
2023-05-04T23:19:35.718Z,60.60
2023-05-04T23:22:03.539Z,60.60
2023-05-04T23:24:31.308Z,60.60
2023-05-04T23:26:59.634Z,60.70
2023-05-04T23:29:27.386Z,60.80
2023-05-04T23:31:56.004Z,60.80
2023-05-04T23:34:23.952Z,60.80
2023-05-04T23:36:54.134Z,60.80
2023-05-04T23:39:21.946Z,60.80
2023-05-04T23:41:50.357Z,60.90
2023-05-04T23:44:18.156Z,60.90
2023-05-04T23:46:45.930Z,60.90
2023-05-04T23:49:13.691Z,60.90
2023-05-04T23:51:41.449Z,60.90
2023-05-04T23:54:10.622Z,61.00
2023-05-04T23:56:38.424Z,61.00
2023-05-04T23:59:06.509Z,61.00
